Terminal Aerodrome Forecast
Issued by NWS Portland, ME

Home | Current Version | Previous Version | Text Only | Print | Product List | Glossary On
Versions: 1 2 3 4 5 6 7 8 9 10 11 12 13 14 15 16 17
000
FTUS41 KGYX 181743
TAFCON
TAF
KCON 181743Z 1818/1918 14005KT 5SM -SHRA OVC007
      TEMPO 1818/1822 1 1/2SM RA BR SCT008 BKN012 OVC030
     FM182200 14005KT 4SM -SHRA BR OVC005
     FM190400 00000KT 2SM BR OVC003
     FM191500 27004KT P6SM SCT025 BKN035 BKN080=

USA.gov is the U.S. government's official web portal to all federal, state and local government web resources and services.